createdAt,value
2022-09-05T00:01:27.616Z,17.15
2022-09-05T00:04:23.568Z,17.15
2022-09-05T00:06:58.704Z,17.13
2022-09-05T00:09:43.923Z,17.13
2022-09-05T00:12:13.199Z,17.13
2022-09-05T00:15:17.796Z,17.10
2022-09-05T00:18:42.475Z,17.09
2022-09-05T00:24:31.278Z,17.10
2022-09-05T00:24:35.279Z,17.09
2022-09-05T00:26:52.264Z,17.08
2022-09-05T00:29:39.676Z,17.05
2022-09-05T00:32:23.735Z,17.02
2022-09-05T00:35:06.227Z,17.01
2022-09-05T00:37:38.238Z,16.98
2022-09-05T00:40:18.554Z,16.98
2022-09-05T00:42:49.759Z,16.99
2022-09-05T00:45:25.228Z,17.00
2022-09-05T00:47:59.175Z,16.98
2022-09-05T00:50:31.629Z,16.94
2022-09-05T00:53:06.846Z,16.92
2022-09-05T00:55:41.869Z,16.88
2022-09-05T00:58:19.228Z,16.89
2022-09-05T01:00:52.884Z,16.84
2022-09-05T01:03:33.503Z,16.80
2022-09-05T01:06:11.450Z,16.78
2022-09-05T01:09:07.386Z,16.78
2022-09-05T01:11:57.454Z,16.78
2022-09-05T01:14:55.516Z,16.78
2022-09-05T01:17:39.790Z,16.77
2022-09-05T01:20:20.537Z,16.77
2022-09-05T01:23:18.282Z,16.76
2022-09-05T01:26:01.270Z,16.74
2022-09-05T01:29:16.292Z,16.71
2022-09-05T01:31:29.280Z,16.67
2022-09-05T01:34:02.402Z,16.64
2022-09-05T01:36:42.293Z,16.62
2022-09-05T01:39:18.569Z,16.60
2022-09-05T01:42:09.851Z,16.58
2022-09-05T01:44:49.764Z,16.54
2022-09-05T01:47:30.994Z,16.51
2022-09-05T01:50:07.270Z,16.50
2022-09-05T01:52:59.225Z,16.47
2022-09-05T01:56:03.979Z,16.47
2022-09-05T01:58:45.536Z,16.44
2022-09-05T02:01:25.357Z,16.37
2022-09-05T02:04:14.796Z,16.39
2022-09-05T02:06:49.913Z,16.41
2022-09-05T02:09:38.444Z,16.40
2022-09-05T02:12:10.599Z,16.33
2022-09-05T02:14:41.377Z,16.29
2022-09-05T02:17:27.330Z,16.29
2022-09-05T02:20:23.538Z,16.26
2022-09-05T02:23:25.999Z,16.27
2022-09-05T02:26:03.656Z,16.27
2022-09-05T02:28:39.906Z,16.22
2022-09-05T02:31:20.120Z,16.20
2022-09-05T02:33:57.596Z,16.21
2022-09-05T02:36:36.606Z,16.18
2022-09-05T02:45:00.641Z,16.23
2022-09-05T02:45:14.076Z,16.18
2022-09-05T02:45:17.257Z,16.20
2022-09-05T02:47:51.344Z,16.21
2022-09-05T02:53:19.691Z,16.16
2022-09-05T02:57:35.598Z,16.05
2022-09-05T02:57:37.803Z,16.08
2022-09-05T02:59:35.871Z,16.01
2022-09-05T03:02:25.545Z,15.93
2022-09-05T03:05:04.833Z,15.89
2022-09-05T03:07:51.868Z,15.90
2022-09-05T03:10:53.345Z,15.89
2022-09-05T03:13:54.679Z,15.86
2022-09-05T03:16:59.999Z,15.85
2022-09-05T03:20:15.017Z,15.79
2022-09-05T03:23:11.250Z,15.75
2022-09-05T03:26:09.233Z,15.75
2022-09-05T03:29:12.437Z,15.72
2022-09-05T03:31:53.117Z,15.74
2022-09-05T03:34:46.410Z,15.76
2022-09-05T03:37:49.686Z,15.73
2022-09-05T03:40:37.406Z,15.70
2022-09-05T03:43:32.527Z,15.68
2022-09-05T03:46:11.427Z,15.66
2022-09-05T03:49:20.000Z,15.65
2022-09-05T03:57:13.048Z,15.64
2022-09-05T03:57:26.492Z,15.62
2022-09-05T03:58:18.256Z,15.61
2022-09-05T04:00:49.128Z,15.59
2022-09-05T04:08:08.280Z,15.57
2022-09-05T04:08:28.209Z,15.54
2022-09-05T04:09:37.098Z,15.55
2022-09-05T04:12:16.735Z,15.54
2022-09-05T04:14:48.346Z,15.55
2022-09-05T04:17:25.748Z,15.57
2022-09-05T04:19:56.289Z,15.56
2022-09-05T04:22:29.658Z,15.54
2022-09-05T04:25:03.474Z,15.52
2022-09-05T04:27:39.142Z,15.50
2022-09-05T04:30:38.555Z,15.49
2022-09-05T04:33:19.389Z,15.46
2022-09-05T04:35:56.633Z,15.44
2022-09-05T04:38:37.173Z,15.44
2022-09-05T04:41:09.765Z,15.41
2022-09-05T04:43:42.227Z,15.41
2022-09-05T04:46:19.353Z,15.40
2022-09-05T04:48:54.548Z,15.41
2022-09-05T04:51:56.284Z,15.39
2022-09-05T04:54:34.850Z,15.36
2022-09-05T04:57:23.255Z,15.38
2022-09-05T05:04:26.087Z,15.37
2022-09-05T05:06:08.361Z,15.34
2022-09-05T05:06:10.662Z,15.36
2022-09-05T05:08:39.247Z,15.36
2022-09-05T05:17:08.827Z,15.38
2022-09-05T05:17:54.427Z,15.39
2022-09-05T05:18:13.274Z,15.41
2022-09-05T05:19:48.852Z,15.43
2022-09-05T05:22:35.655Z,15.44
2022-09-05T05:25:03.769Z,15.44
2022-09-05T05:27:35.600Z,15.45
2022-09-05T05:30:05.513Z,15.44
2022-09-05T05:32:45.601Z,15.43
2022-09-05T05:35:15.997Z,15.47
2022-09-05T05:37:46.746Z,15.46
2022-09-05T05:40:21.048Z,15.47
2022-09-05T05:42:49.222Z,15.50
2022-09-05T05:45:19.172Z,15.52
2022-09-05T05:47:50.574Z,15.51
2022-09-05T05:50:33.216Z,15.54
2022-09-05T05:53:33.486Z,15.52
2022-09-05T05:56:48.826Z,15.58
2022-09-05T05:59:33.402Z,15.60
2022-09-05T06:02:28.916Z,15.65
2022-09-05T06:05:25.839Z,15.65
2022-09-05T06:10:03.795Z,15.67
2022-09-05T06:14:58.126Z,15.68
2022-09-05T06:15:10.137Z,15.74
2022-09-05T06:18:20.582Z,15.79
2022-09-05T06:22:10.594Z,15.83
2022-09-05T06:24:41.550Z,15.87
2022-09-05T06:27:33.661Z,15.92
2022-09-05T06:30:07.832Z,15.93
2022-09-05T06:32:58.448Z,15.99
2022-09-05T06:35:40.305Z,16.03
2022-09-05T06:38:27.443Z,16.06
2022-09-05T06:41:04.549Z,16.10
2022-09-05T06:43:38.726Z,16.15
2022-09-05T06:46:54.671Z,16.23
2022-09-05T06:49:30.091Z,16.32
2022-09-05T06:52:37.627Z,16.39
2022-09-05T06:55:42.746Z,16.40
2022-09-05T06:58:49.201Z,16.50
2022-09-05T07:01:35.687Z,16.56
2022-09-05T07:05:18.437Z,16.61
2022-09-05T07:07:16.970Z,16.70
2022-09-05T07:09:55.386Z,16.76
2022-09-05T07:12:30.113Z,16.80
2022-09-05T07:15:09.446Z,16.94
2022-09-05T07:18:09.549Z,17.01
2022-09-05T07:21:17.104Z,17.11
2022-09-05T07:24:08.847Z,17.20
2022-09-05T07:26:54.652Z,17.29
2022-09-05T07:29:28.114Z,17.36
2022-09-05T07:31:57.168Z,17.44
2022-09-05T07:34:28.834Z,17.44
2022-09-05T07:37:15.493Z,17.46
2022-09-05T07:39:49.058Z,17.48
2022-09-05T07:42:21.393Z,17.67
2022-09-05T07:44:56.428Z,17.78
2022-09-05T07:47:28.557Z,17.89
2022-09-05T07:53:18.720Z,17.99
2022-09-05T07:56:54.031Z,18.06
2022-09-05T07:56:59.808Z,18.14
2022-09-05T07:58:25.947Z,18.25
2022-09-05T08:00:58.259Z,18.35
2022-09-05T08:03:29.172Z,18.44
2022-09-05T08:06:00.534Z,18.52
2022-09-05T08:08:31.700Z,18.59
2022-09-05T08:11:23.588Z,18.69
2022-09-05T08:14:35.430Z,18.79
2022-09-05T08:16:50.054Z,18.89
2022-09-05T08:19:57.968Z,18.97
2022-09-05T08:22:52.163Z,19.02
2022-09-05T08:25:23.642Z,19.07
2022-09-05T08:28:06.337Z,19.14
2022-09-05T08:30:40.564Z,19.17
2022-09-05T08:33:14.370Z,19.21
2022-09-05T08:35:45.339Z,19.30
2022-09-05T08:38:14.731Z,19.33
2022-09-05T08:40:48.823Z,19.38
2022-09-05T08:46:19.997Z,19.46
2022-09-05T08:46:46.697Z,19.54
2022-09-05T08:49:46.196Z,19.64
2022-09-05T08:52:15.790Z,19.75
2022-09-05T08:55:06.247Z,19.83
2022-09-05T08:57:56.170Z,19.97
2022-09-05T09:00:27.503Z,20.05
2022-09-05T09:03:10.290Z,20.13
2022-09-05T09:06:13.435Z,20.16
2022-09-05T09:08:54.471Z,20.29
2022-09-05T09:11:29.626Z,20.26
2022-09-05T09:14:41.709Z,20.36
2022-09-05T09:17:21.546Z,20.49
2022-09-05T09:19:52.216Z,20.51
2022-09-05T09:22:33.189Z,20.55
2022-09-05T09:25:11.989Z,20.65
2022-09-05T09:28:46.548Z,20.65
2022-09-05T09:30:57.988Z,20.81
2022-09-05T09:33:33.181Z,20.91
2022-09-05T09:36:07.928Z,20.99
2022-09-05T09:38:44.010Z,21.11
2022-09-05T09:41:32.893Z,21.17
2022-09-05T09:44:23.347Z,21.29
2022-09-05T09:46:53.924Z,21.38
2022-09-05T09:49:36.979Z,21.48
2022-09-05T09:52:44.949Z,21.58
2022-09-05T09:55:47.836Z,21.69
2022-09-05T09:58:32.300Z,21.77
2022-09-05T10:01:34.916Z,21.86
2022-09-05T10:10:33.875Z,21.90
2022-09-05T10:10:57.449Z,22.01
2022-09-05T10:11:37.563Z,22.16
2022-09-05T10:14:35.393Z,22.22
2022-09-05T10:17:22.321Z,22.29
2022-09-05T10:20:12.110Z,22.31
2022-09-05T10:22:52.562Z,22.41
2022-09-05T10:25:40.773Z,22.61
2022-09-05T10:28:13.811Z,22.78
2022-09-05T10:31:52.790Z,22.87
2022-09-05T10:35:09.219Z,22.84
2022-09-05T10:36:29.396Z,22.85
2022-09-05T10:39:06.121Z,23.01
2022-09-05T10:41:45.413Z,23.09
2022-09-05T10:44:15.054Z,23.08
2022-09-05T10:46:57.080Z,23.04
2022-09-05T10:49:27.321Z,23.14
2022-09-05T10:52:17.916Z,23.28
2022-09-05T10:55:14.624Z,23.47
2022-09-05T10:57:57.800Z,23.54
2022-09-05T11:02:22.237Z,23.66
2022-09-05T11:03:50.339Z,23.53
2022-09-05T11:06:25.216Z,23.55
2022-09-05T11:09:00.959Z,23.61
2022-09-05T11:11:34.560Z,23.72
2022-09-05T11:14:07.392Z,23.80
2022-09-05T11:16:56.103Z,23.92
2022-09-05T11:19:30.990Z,24.01
2022-09-05T11:22:19.881Z,24.04
2022-09-05T11:24:55.543Z,24.11
2022-09-05T11:27:30.311Z,24.17
2022-09-05T11:30:03.584Z,24.16
2022-09-05T11:34:24.700Z,24.13
2022-09-05T11:39:54.440Z,24.04
2022-09-05T11:40:08.558Z,23.91
2022-09-05T11:42:19.925Z,23.99
2022-09-05T11:45:16.159Z,23.94
2022-09-05T11:47:53.497Z,24.07
2022-09-05T11:50:44.646Z,24.29
2022-09-05T11:53:46.118Z,24.45
2022-09-05T11:56:49.611Z,24.57
2022-09-05T11:59:45.002Z,24.43
2022-09-05T12:02:27.821Z,24.45
2022-09-05T12:05:48.817Z,24.52
2022-09-05T12:08:06.360Z,24.59
2022-09-05T12:10:48.977Z,24.53
2022-09-05T12:13:32.227Z,24.56
2022-09-05T12:16:08.100Z,24.64
2022-09-05T12:21:38.843Z,24.67
2022-09-05T12:25:16.977Z,24.71
2022-09-05T12:27:40.098Z,24.75
2022-09-05T12:29:59.738Z,24.78
2022-09-05T12:34:39.788Z,24.78
2022-09-05T12:36:11.619Z,24.89
2022-09-05T12:41:33.574Z,24.90
2022-09-05T12:41:43.842Z,24.85
2022-09-05T12:42:10.127Z,24.47
2022-09-05T12:44:44.503Z,25.04
2022-09-05T12:47:18.705Z,25.03
2022-09-05T12:50:02.449Z,25.12
2022-09-05T12:52:42.492Z,25.26
2022-09-05T12:55:12.818Z,25.35
2022-09-05T13:02:29.407Z,25.35
2022-09-05T13:03:03.809Z,25.27
2022-09-05T13:03:33.676Z,25.27
2022-09-05T13:06:06.450Z,25.26
2022-09-05T13:08:44.110Z,25.29
2022-09-05T13:14:49.233Z,25.35
2022-09-05T13:14:58.213Z,25.26
2022-09-05T13:16:56.518Z,25.35
2022-09-05T13:19:32.970Z,25.30
2022-09-05T13:22:03.399Z,25.34
2022-09-05T13:24:35.079Z,25.28
2022-09-05T13:27:12.727Z,25.24
2022-09-05T13:30:59.436Z,25.32
2022-09-05T13:38:02.136Z,25.40
2022-09-05T13:38:20.015Z,25.53
2022-09-05T13:38:48.732Z,25.60
2022-09-05T13:41:26.855Z,25.75
2022-09-05T13:44:00.341Z,25.79
2022-09-05T13:46:57.903Z,25.77
2022-09-05T13:49:31.666Z,25.78
2022-09-05T13:52:26.156Z,25.86
2022-09-05T13:55:04.600Z,25.99
2022-09-05T13:57:36.954Z,26.01
2022-09-05T14:00:28.166Z,26.31
2022-09-05T14:03:42.159Z,26.33
2022-09-05T14:06:45.062Z,26.41
2022-09-05T14:09:37.321Z,26.48
2022-09-05T14:12:32.762Z,26.48
2022-09-05T14:15:11.012Z,26.56
2022-09-05T14:18:02.297Z,26.59
2022-09-05T14:21:16.334Z,26.63
2022-09-05T14:23:53.345Z,26.77
2022-09-05T14:26:26.634Z,26.93
2022-09-05T14:29:02.231Z,27.21
2022-09-05T14:37:07.088Z,27.50
2022-09-05T14:37:49.871Z,27.76
2022-09-05T14:38:04.417Z,27.76
2022-09-05T14:41:15.841Z,27.84
2022-09-05T14:44:11.588Z,27.96
2022-09-05T14:47:35.125Z,28.22
2022-09-05T14:50:17.827Z,28.10
2022-09-05T14:56:13.725Z,28.24
2022-09-05T15:02:41.797Z,28.26
2022-09-05T15:02:53.581Z,28.24
2022-09-05T15:04:40.866Z,28.49
2022-09-05T15:07:16.702Z,28.77
2022-09-05T15:12:20.002Z,28.88
2022-09-05T15:13:17.253Z,28.93
2022-09-05T15:16:00.668Z,28.94
2022-09-05T15:18:32.993Z,29.11
2022-09-05T15:21:33.444Z,29.12
2022-09-05T15:24:13.645Z,29.19
2022-09-05T15:26:53.293Z,29.30
2022-09-05T15:29:24.456Z,29.34
2022-09-05T15:31:59.450Z,29.44
2022-09-05T15:34:38.519Z,29.62
2022-09-05T15:37:29.838Z,29.66
2022-09-05T15:40:02.798Z,29.46
2022-09-05T15:42:33.524Z,29.55
2022-09-05T15:45:10.914Z,29.35
2022-09-05T15:47:42.471Z,29.16
2022-09-05T15:50:21.818Z,29.20
2022-09-05T15:52:55.308Z,29.04
2022-09-05T15:55:26.169Z,29.01
2022-09-05T15:57:57.787Z,28.92
2022-09-05T16:00:39.937Z,29.00
2022-09-05T16:04:12.849Z,28.92
2022-09-05T16:10:38.055Z,28.72
2022-09-05T16:10:50.848Z,28.86
2022-09-05T16:14:39.554Z,28.59
2022-09-05T16:23:12.737Z,28.29
2022-09-05T16:23:24.445Z,27.85
2022-09-05T16:23:29.891Z,28.14
2022-09-05T16:25:52.852Z,27.68
2022-09-05T16:28:23.818Z,27.70
2022-09-05T16:31:00.969Z,27.76
2022-09-05T16:33:32.094Z,27.78
2022-09-05T16:36:03.623Z,27.70
2022-09-05T16:38:49.625Z,27.68
2022-09-05T16:41:24.473Z,27.61
2022-09-05T16:43:55.267Z,27.57
2022-09-05T16:46:28.064Z,27.52
2022-09-05T16:49:00.841Z,27.47
2022-09-05T16:51:35.376Z,27.39
2022-09-05T16:54:11.280Z,27.33
2022-09-05T16:56:43.030Z,27.30
2022-09-05T16:59:15.434Z,27.26
2022-09-05T17:02:05.815Z,27.19
2022-09-05T17:05:03.536Z,27.13
2022-09-05T17:07:59.220Z,26.98
2022-09-05T17:10:29.083Z,26.81
2022-09-05T17:12:57.375Z,26.76
2022-09-05T17:15:27.669Z,26.71
2022-09-05T17:18:20.090Z,26.64
2022-09-05T17:20:49.911Z,26.57
2022-09-05T17:25:14.011Z,26.52
2022-09-05T17:29:36.097Z,26.46
2022-09-05T17:29:45.399Z,26.34
2022-09-05T17:31:58.471Z,26.28
2022-09-05T17:34:50.856Z,26.23
2022-09-05T17:37:42.983Z,26.15
2022-09-05T17:40:38.171Z,26.09
2022-09-05T17:43:07.758Z,25.99
2022-09-05T17:45:45.024Z,25.94
2022-09-05T17:48:16.643Z,25.86
2022-09-05T17:50:51.473Z,25.78
2022-09-05T17:53:25.178Z,25.74
2022-09-05T17:56:12.916Z,25.65
2022-09-05T17:59:02.139Z,25.44
2022-09-05T18:01:32.523Z,25.30
2022-09-05T18:04:17.322Z,25.26
2022-09-05T18:06:59.563Z,25.20
2022-09-05T18:09:58.976Z,25.09
2022-09-05T18:13:12.658Z,25.01
2022-09-05T18:16:18.336Z,24.91
2022-09-05T18:19:27.686Z,24.78
2022-09-05T18:22:04.224Z,24.68
2022-09-05T18:24:40.081Z,24.59
2022-09-05T18:30:10.089Z,24.40
2022-09-05T18:32:43.811Z,24.32
2022-09-05T18:35:27.943Z,24.24
2022-09-05T18:38:34.457Z,24.13
2022-09-05T18:41:21.787Z,24.01
2022-09-05T18:44:12.490Z,23.94
2022-09-05T18:46:46.111Z,23.84
2022-09-05T18:50:09.879Z,23.75
2022-09-05T18:52:10.449Z,23.68
2022-09-05T18:54:42.427Z,23.61
2022-09-05T18:57:27.331Z,23.54
2022-09-05T19:00:00.060Z,23.48
2022-09-05T19:02:49.869Z,23.39
2022-09-05T19:05:28.733Z,23.29
2022-09-05T19:07:59.474Z,23.22
2022-09-05T19:10:34.563Z,23.16
2022-09-05T19:13:11.063Z,23.08
2022-09-05T19:15:48.248Z,23.02
2022-09-05T19:18:27.417Z,22.95
2022-09-05T19:21:12.183Z,22.89
2022-09-05T19:23:50.044Z,22.84
2022-09-05T19:26:20.345Z,22.76
2022-09-05T19:35:45.438Z,22.72
2022-09-05T19:36:46.724Z,22.65
2022-09-05T19:36:55.590Z,22.57
2022-09-05T19:37:26.103Z,22.52
2022-09-05T19:47:39.853Z,22.43
2022-09-05T19:47:49.924Z,22.36
2022-09-05T19:48:28.063Z,22.28
2022-09-05T19:50:57.194Z,22.22
2022-09-05T19:53:25.904Z,22.16
2022-09-05T19:55:54.729Z,22.11
2022-09-05T19:58:27.077Z,22.07
2022-09-05T20:01:03.725Z,22.03
2022-09-05T20:03:38.895Z,21.99
2022-09-05T20:06:29.592Z,21.93
2022-09-05T20:09:09.501Z,21.89
2022-09-05T20:11:46.459Z,21.83
2022-09-05T20:14:25.186Z,21.78
2022-09-05T20:16:55.907Z,21.75
2022-09-05T20:19:30.860Z,21.72
2022-09-05T20:22:37.108Z,21.66
2022-09-05T20:24:52.759Z,21.61
2022-09-05T20:27:27.524Z,21.57
2022-09-05T20:29:59.797Z,21.50
2022-09-05T20:32:38.734Z,21.43
2022-09-05T20:38:06.842Z,21.41
2022-09-05T20:43:16.873Z,21.36
2022-09-05T20:43:36.697Z,21.32
2022-09-05T20:44:39.802Z,21.28
2022-09-05T20:51:31.559Z,21.23
2022-09-05T20:54:06.677Z,21.20
2022-09-05T20:54:21.743Z,21.14
2022-09-05T20:55:42.554Z,21.08
2022-09-05T20:58:13.411Z,21.06
2022-09-05T21:01:15.429Z,21.02
2022-09-05T21:03:38.021Z,20.97
2022-09-05T21:06:23.695Z,20.95
2022-09-05T21:08:52.923Z,20.92
2022-09-05T21:11:30.595Z,20.84
2022-09-05T21:14:01.937Z,20.84
2022-09-05T21:16:33.319Z,20.82
2022-09-05T21:19:03.150Z,20.80
2022-09-05T21:21:32.915Z,20.73
2022-09-05T21:24:15.929Z,20.72
2022-09-05T21:26:49.673Z,20.70
2022-09-05T21:29:26.469Z,20.67
2022-09-05T21:32:02.553Z,20.67
2022-09-05T21:34:45.073Z,20.63
2022-09-05T21:37:14.893Z,20.50
2022-09-05T21:39:59.318Z,20.55
2022-09-05T21:47:33.845Z,20.55
2022-09-05T21:47:42.995Z,20.53
2022-09-05T21:48:08.000Z,20.51
2022-09-05T21:50:40.158Z,20.48
2022-09-05T21:56:37.288Z,20.45
2022-09-05T21:59:14.781Z,20.38
2022-09-05T21:59:32.964Z,20.33
2022-09-05T22:01:52.581Z,20.32
2022-09-05T22:04:22.002Z,20.25
2022-09-05T22:06:54.102Z,20.20
2022-09-05T22:09:23.300Z,20.15
2022-09-05T22:11:51.585Z,20.12
2022-09-05T22:14:20.693Z,20.09
2022-09-05T22:16:50.414Z,20.07
2022-09-05T22:19:22.791Z,20.07
2022-09-05T22:21:56.011Z,20.00
2022-09-05T22:24:26.195Z,19.98
2022-09-05T22:27:12.714Z,19.94
2022-09-05T22:29:41.365Z,19.92
2022-09-05T22:32:09.836Z,19.90
2022-09-05T22:34:37.858Z,19.83
2022-09-05T22:37:07.634Z,19.78
2022-09-05T22:39:36.321Z,19.76
2022-09-05T22:42:10.238Z,19.75
2022-09-05T22:44:40.141Z,19.73
2022-09-05T22:47:09.445Z,19.75
2022-09-05T22:49:37.946Z,19.71
2022-09-05T22:52:08.841Z,19.72
2022-09-05T22:54:37.195Z,19.73
2022-09-05T22:57:05.634Z,19.70
2022-09-05T22:59:33.705Z,19.71
2022-09-05T23:02:01.813Z,19.68
2022-09-05T23:04:30.020Z,19.64
2022-09-05T23:07:02.317Z,19.62
2022-09-05T23:09:31.674Z,19.61
2022-09-05T23:11:59.690Z,19.57
2022-09-05T23:14:27.730Z,19.54
2022-09-05T23:16:56.131Z,19.52
2022-09-05T23:19:24.144Z,19.46
2022-09-05T23:21:52.214Z,19.46
2022-09-05T23:24:20.226Z,19.46
2022-09-05T23:26:49.601Z,19.42
2022-09-05T23:29:17.625Z,19.38
2022-09-05T23:31:45.702Z,19.37
2022-09-05T23:34:13.750Z,19.34
2022-09-05T23:36:41.812Z,19.30
2022-09-05T23:39:10.443Z,19.29
2022-09-05T23:41:38.466Z,19.30
2022-09-05T23:44:07.929Z,19.27
2022-09-05T23:46:37.407Z,19.25
2022-09-05T23:49:05.438Z,19.26
2022-09-05T23:51:33.508Z,19.24
2022-09-05T23:54:01.543Z,19.24
2022-09-05T23:56:29.618Z,19.21
2022-09-05T23:58:57.620Z,19.17
